sensor_id;sensor_type;location;lat;lon;timestamp;P1;durP1;ratioP1;P2;durP2;ratioP2
47167;SDS011;32931;47.778;17.806;2023-07-30T00:00:23;4.75;;;2.60;;
47167;SDS011;32931;47.778;17.806;2023-07-30T00:02:50;5.80;;;2.20;;
47167;SDS011;32931;47.778;17.806;2023-07-30T00:05:16;4.78;;;2.60;;
47167;SDS011;32931;47.778;17.806;2023-07-30T00:07:42;6.75;;;2.55;;
47167;SDS011;32931;47.778;17.806;2023-07-30T00:10:08;5.35;;;2.20;;
47167;SDS011;32931;47.778;17.806;2023-07-30T00:12:34;6.78;;;2.13;;
47167;SDS011;32931;47.778;17.806;2023-07-30T00:15:01;3.13;;;2.25;;
47167;SDS011;32931;47.778;17.806;2023-07-30T00:17:27;5.50;;;2.20;;
47167;SDS011;32931;47.778;17.806;2023-07-30T00:19:53;3.08;;;1.98;;
47167;SDS011;32931;47.778;17.806;2023-07-30T00:22:19;7.90;;;2.22;;
47167;SDS011;32931;47.778;17.806;2023-07-30T00:24:45;5.85;;;2.30;;
47167;SDS011;32931;47.778;17.806;2023-07-30T00:27:11;5.15;;;2.17;;
47167;SDS011;32931;47.778;17.806;2023-07-30T00:29:37;4.22;;;2.17;;
47167;SDS011;32931;47.778;17.806;2023-07-30T00:32:03;7.82;;;2.63;;
47167;SDS011;32931;47.778;17.806;2023-07-30T00:34:30;5.15;;;2.38;;
47167;SDS011;32931;47.778;17.806;2023-07-30T00:36:56;4.20;;;2.13;;
47167;SDS011;32931;47.778;17.806;2023-07-30T00:39:22;7.43;;;2.70;;
47167;SDS011;32931;47.778;17.806;2023-07-30T00:41:48;9.60;;;2.55;;
47167;SDS011;32931;47.778;17.806;2023-07-30T00:44:14;7.38;;;2.67;;
47167;SDS011;32931;47.778;17.806;2023-07-30T00:46:41;6.05;;;2.47;;
47167;SDS011;32931;47.778;17.806;2023-07-30T00:49:07;4.95;;;2.08;;
47167;SDS011;32931;47.778;17.806;2023-07-30T00:51:33;4.68;;;2.30;;
47167;SDS011;32931;47.778;17.806;2023-07-30T00:54:00;9.80;;;2.63;;
47167;SDS011;32931;47.778;17.806;2023-07-30T00:56:26;6.93;;;2.55;;
47167;SDS011;32931;47.778;17.806;2023-07-30T00:58:52;6.72;;;2.70;;
47167;SDS011;32931;47.778;17.806;2023-07-30T01:01:20;10.15;;;2.63;;
47167;SDS011;32931;47.778;17.806;2023-07-30T01:03:46;6.75;;;2.70;;
47167;SDS011;32931;47.778;17.806;2023-07-30T01:06:12;8.25;;;2.70;;
47167;SDS011;32931;47.778;17.806;2023-07-30T01:08:39;7.15;;;2.85;;
47167;SDS011;32931;47.778;17.806;2023-07-30T01:11:06;6.18;;;2.47;;
47167;SDS011;32931;47.778;17.806;2023-07-30T01:13:33;6.47;;;2.70;;
47167;SDS011;32931;47.778;17.806;2023-07-30T01:16:01;5.43;;;2.38;;
47167;SDS011;32931;47.778;17.806;2023-07-30T01:18:28;5.40;;;2.33;;
47167;SDS011;32931;47.778;17.806;2023-07-30T01:20:58;3.80;;;2.45;;
47167;SDS011;32931;47.778;17.806;2023-07-30T01:23:25;4.43;;;2.53;;
47167;SDS011;32931;47.778;17.806;2023-07-30T01:25:59;7.85;;;2.53;;
47167;SDS011;32931;47.778;17.806;2023-07-30T01:28:29;3.90;;;2.30;;
47167;SDS011;32931;47.778;17.806;2023-07-30T01:31:08;6.85;;;2.58;;
47167;SDS011;32931;47.778;17.806;2023-07-30T01:33:36;5.63;;;2.80;;
47167;SDS011;32931;47.778;17.806;2023-07-30T01:36:04;4.05;;;2.50;;
47167;SDS011;32931;47.778;17.806;2023-07-30T01:38:33;8.60;;;2.65;;
47167;SDS011;32931;47.778;17.806;2023-07-30T01:41:00;8.48;;;3.30;;
47167;SDS011;32931;47.778;17.806;2023-07-30T01:43:26;5.30;;;2.42;;
47167;SDS011;32931;47.778;17.806;2023-07-30T01:45:52;7.50;;;2.60;;
47167;SDS011;32931;47.778;17.806;2023-07-30T01:48:19;7.53;;;2.55;;
47167;SDS011;32931;47.778;17.806;2023-07-30T01:50:45;8.93;;;2.53;;
47167;SDS011;32931;47.778;17.806;2023-07-30T01:53:14;5.57;;;2.90;;
47167;SDS011;32931;47.778;17.806;2023-07-30T01:55:40;5.82;;;2.90;;
47167;SDS011;32931;47.778;17.806;2023-07-30T01:58:09;4.45;;;2.50;;
47167;SDS011;32931;47.778;17.806;2023-07-30T02:00:35;8.25;;;2.92;;
47167;SDS011;32931;47.778;17.806;2023-07-30T02:03:01;6.80;;;2.50;;
47167;SDS011;32931;47.778;17.806;2023-07-30T02:05:28;6.53;;;2.95;;
47167;SDS011;32931;47.778;17.806;2023-07-30T02:07:54;3.95;;;2.28;;
47167;SDS011;32931;47.778;17.806;2023-07-30T02:10:20;4.72;;;2.90;;
47167;SDS011;32931;47.778;17.806;2023-07-30T02:12:46;6.18;;;2.50;;
47167;SDS011;32931;47.778;17.806;2023-07-30T02:15:12;8.50;;;2.75;;
47167;SDS011;32931;47.778;17.806;2023-07-30T02:17:38;8.50;;;2.70;;
47167;SDS011;32931;47.778;17.806;2023-07-30T02:20:05;6.80;;;2.58;;
47167;SDS011;32931;47.778;17.806;2023-07-30T02:22:32;5.25;;;2.70;;
47167;SDS011;32931;47.778;17.806;2023-07-30T02:24:58;5.90;;;2.50;;
47167;SDS011;32931;47.778;17.806;2023-07-30T02:27:24;5.47;;;2.50;;
47167;SDS011;32931;47.778;17.806;2023-07-30T02:29:50;3.38;;;2.47;;
47167;SDS011;32931;47.778;17.806;2023-07-30T02:32:16;6.07;;;2.50;;
47167;SDS011;32931;47.778;17.806;2023-07-30T02:34:42;9.18;;;2.33;;
47167;SDS011;32931;47.778;17.806;2023-07-30T02:37:08;5.13;;;2.78;;
47167;SDS011;32931;47.778;17.806;2023-07-30T02:39:34;5.05;;;2.60;;
47167;SDS011;32931;47.778;17.806;2023-07-30T02:42:00;9.65;;;2.95;;
47167;SDS011;32931;47.778;17.806;2023-07-30T02:44:27;6.55;;;2.60;;
47167;SDS011;32931;47.778;17.806;2023-07-30T02:46:53;4.80;;;2.40;;
47167;SDS011;32931;47.778;17.806;2023-07-30T02:49:19;5.72;;;2.33;;
47167;SDS011;32931;47.778;17.806;2023-07-30T02:51:45;7.05;;;2.33;;
47167;SDS011;32931;47.778;17.806;2023-07-30T02:54:14;3.50;;;2.30;;
47167;SDS011;32931;47.778;17.806;2023-07-30T02:56:46;4.88;;;2.60;;
47167;SDS011;32931;47.778;17.806;2023-07-30T02:59:12;12.45;;;2.58;;
47167;SDS011;32931;47.778;17.806;2023-07-30T03:01:38;6.15;;;2.90;;
47167;SDS011;32931;47.778;17.806;2023-07-30T03:04:04;6.13;;;2.80;;
47167;SDS011;32931;47.778;17.806;2023-07-30T03:06:31;8.52;;;3.00;;
47167;SDS011;32931;47.778;17.806;2023-07-30T03:08:57;5.78;;;2.50;;
47167;SDS011;32931;47.778;17.806;2023-07-30T03:11:23;6.97;;;2.70;;
47167;SDS011;32931;47.778;17.806;2023-07-30T03:13:49;7.65;;;2.67;;
47167;SDS011;32931;47.778;17.806;2023-07-30T03:16:15;6.70;;;2.80;;
47167;SDS011;32931;47.778;17.806;2023-07-30T03:18:42;8.10;;;2.80;;
47167;SDS011;32931;47.778;17.806;2023-07-30T03:21:08;6.20;;;2.67;;
47167;SDS011;32931;47.778;17.806;2023-07-30T03:23:34;8.27;;;2.85;;
47167;SDS011;32931;47.778;17.806;2023-07-30T03:26:00;10.18;;;2.55;;
47167;SDS011;32931;47.778;17.806;2023-07-30T03:28:26;4.63;;;2.60;;
47167;SDS011;32931;47.778;17.806;2023-07-30T03:30:52;8.80;;;2.60;;
47167;SDS011;32931;47.778;17.806;2023-07-30T03:33:19;4.30;;;2.30;;
47167;SDS011;32931;47.778;17.806;2023-07-30T03:35:45;5.22;;;2.45;;
47167;SDS011;32931;47.778;17.806;2023-07-30T03:38:11;6.88;;;2.58;;
47167;SDS011;32931;47.778;17.806;2023-07-30T03:40:38;5.45;;;2.38;;
47167;SDS011;32931;47.778;17.806;2023-07-30T03:43:04;3.03;;;2.30;;
47167;SDS011;32931;47.778;17.806;2023-07-30T03:45:30;4.85;;;2.70;;
47167;SDS011;32931;47.778;17.806;2023-07-30T03:47:56;3.85;;;2.17;;
47167;SDS011;32931;47.778;17.806;2023-07-30T03:50:22;9.57;;;2.58;;
47167;SDS011;32931;47.778;17.806;2023-07-30T03:52:48;9.55;;;2.75;;
47167;SDS011;32931;47.778;17.806;2023-07-30T03:55:15;4.15;;;2.50;;
47167;SDS011;32931;47.778;17.806;2023-07-30T03:57:41;6.38;;;2.60;;
47167;SDS011;32931;47.778;17.806;2023-07-30T04:00:07;7.75;;;2.80;;
47167;SDS011;32931;47.778;17.806;2023-07-30T04:02:33;4.03;;;2.33;;
47167;SDS011;32931;47.778;17.806;2023-07-30T04:05:00;6.63;;;2.40;;
47167;SDS011;32931;47.778;17.806;2023-07-30T04:07:26;9.23;;;3.15;;
47167;SDS011;32931;47.778;17.806;2023-07-30T04:09:52;8.45;;;2.47;;
47167;SDS011;32931;47.778;17.806;2023-07-30T04:12:18;10.30;;;2.85;;
47167;SDS011;32931;47.778;17.806;2023-07-30T04:14:46;7.88;;;2.75;;
47167;SDS011;32931;47.778;17.806;2023-07-30T04:17:13;5.70;;;2.97;;
47167;SDS011;32931;47.778;17.806;2023-07-30T04:19:39;6.40;;;2.67;;
47167;SDS011;32931;47.778;17.806;2023-07-30T04:22:05;9.27;;;2.70;;
47167;SDS011;32931;47.778;17.806;2023-07-30T04:24:31;8.45;;;2.83;;
47167;SDS011;32931;47.778;17.806;2023-07-30T04:26:57;7.25;;;2.90;;
47167;SDS011;32931;47.778;17.806;2023-07-30T04:29:23;5.50;;;2.53;;
47167;SDS011;32931;47.778;17.806;2023-07-30T04:31:49;8.27;;;3.25;;
47167;SDS011;32931;47.778;17.806;2023-07-30T04:34:15;6.15;;;2.88;;
47167;SDS011;32931;47.778;17.806;2023-07-30T04:36:42;5.03;;;2.78;;
47167;SDS011;32931;47.778;17.806;2023-07-30T04:39:08;7.18;;;2.83;;
47167;SDS011;32931;47.778;17.806;2023-07-30T04:41:34;6.78;;;3.13;;
47167;SDS011;32931;47.778;17.806;2023-07-30T04:44:00;7.20;;;3.13;;
47167;SDS011;32931;47.778;17.806;2023-07-30T04:46:26;4.90;;;2.58;;
47167;SDS011;32931;47.778;17.806;2023-07-30T04:48:52;7.50;;;2.95;;
47167;SDS011;32931;47.778;17.806;2023-07-30T04:51:18;4.47;;;2.97;;
47167;SDS011;32931;47.778;17.806;2023-07-30T04:53:44;8.85;;;2.97;;
47167;SDS011;32931;47.778;17.806;2023-07-30T04:56:11;5.47;;;3.20;;
47167;SDS011;32931;47.778;17.806;2023-07-30T04:58:37;6.32;;;3.05;;
47167;SDS011;32931;47.778;17.806;2023-07-30T05:01:03;9.80;;;3.13;;
47167;SDS011;32931;47.778;17.806;2023-07-30T05:03:29;6.53;;;3.08;;
47167;SDS011;32931;47.778;17.806;2023-07-30T05:05:55;7.53;;;3.30;;
47167;SDS011;32931;47.778;17.806;2023-07-30T05:08:21;4.30;;;2.70;;
47167;SDS011;32931;47.778;17.806;2023-07-30T05:10:47;7.50;;;3.22;;
47167;SDS011;32931;47.778;17.806;2023-07-30T05:13:13;6.85;;;3.13;;
47167;SDS011;32931;47.778;17.806;2023-07-30T05:15:39;7.03;;;3.38;;
47167;SDS011;32931;47.778;17.806;2023-07-30T05:18:06;7.00;;;3.28;;
47167;SDS011;32931;47.778;17.806;2023-07-30T05:20:32;5.28;;;3.05;;
47167;SDS011;32931;47.778;17.806;2023-07-30T05:22:58;7.13;;;3.08;;
47167;SDS011;32931;47.778;17.806;2023-07-30T05:25:24;6.45;;;3.10;;
47167;SDS011;32931;47.778;17.806;2023-07-30T05:27:50;6.45;;;3.03;;
47167;SDS011;32931;47.778;17.806;2023-07-30T05:30:16;5.22;;;3.10;;
47167;SDS011;32931;47.778;17.806;2023-07-30T05:32:42;7.53;;;3.00;;
47167;SDS011;32931;47.778;17.806;2023-07-30T05:35:08;4.70;;;2.70;;
47167;SDS011;32931;47.778;17.806;2023-07-30T05:37:35;7.57;;;3.10;;
47167;SDS011;32931;47.778;17.806;2023-07-30T05:40:01;6.30;;;3.05;;
47167;SDS011;32931;47.778;17.806;2023-07-30T05:42:28;6.88;;;3.40;;
47167;SDS011;32931;47.778;17.806;2023-07-30T05:44:54;8.80;;;3.13;;
47167;SDS011;32931;47.778;17.806;2023-07-30T05:47:20;4.85;;;2.88;;
47167;SDS011;32931;47.778;17.806;2023-07-30T05:49:46;9.25;;;3.10;;
47167;SDS011;32931;47.778;17.806;2023-07-30T05:52:13;6.95;;;3.50;;
47167;SDS011;32931;47.778;17.806;2023-07-30T05:54:39;20.88;;;3.40;;
47167;SDS011;32931;47.778;17.806;2023-07-30T05:57:05;7.30;;;3.20;;
47167;SDS011;32931;47.778;17.806;2023-07-30T05:59:31;6.38;;;2.90;;
47167;SDS011;32931;47.778;17.806;2023-07-30T06:02:01;6.63;;;3.03;;
47167;SDS011;32931;47.778;17.806;2023-07-30T06:04:28;6.55;;;2.95;;
47167;SDS011;32931;47.778;17.806;2023-07-30T06:06:55;7.38;;;3.20;;
47167;SDS011;32931;47.778;17.806;2023-07-30T06:09:21;4.43;;;2.72;;
47167;SDS011;32931;47.778;17.806;2023-07-30T06:11:47;4.13;;;2.60;;
47167;SDS011;32931;47.778;17.806;2023-07-30T06:14:13;6.55;;;3.22;;
47167;SDS011;32931;47.778;17.806;2023-07-30T06:16:40;6.95;;;2.90;;
47167;SDS011;32931;47.778;17.806;2023-07-30T06:19:06;6.15;;;2.78;;
47167;SDS011;32931;47.778;17.806;2023-07-30T06:21:32;5.25;;;3.30;;
47167;SDS011;32931;47.778;17.806;2023-07-30T06:23:58;8.75;;;3.70;;
47167;SDS011;32931;47.778;17.806;2023-07-30T06:26:24;5.90;;;3.30;;
47167;SDS011;32931;47.778;17.806;2023-07-30T06:28:50;6.57;;;2.85;;
47167;SDS011;32931;47.778;17.806;2023-07-30T06:31:16;6.18;;;3.05;;
47167;SDS011;32931;47.778;17.806;2023-07-30T06:33:42;9.18;;;3.20;;
47167;SDS011;32931;47.778;17.806;2023-07-30T06:36:08;4.75;;;3.03;;
47167;SDS011;32931;47.778;17.806;2023-07-30T06:38:35;3.50;;;2.85;;
47167;SDS011;32931;47.778;17.806;2023-07-30T06:41:01;10.35;;;3.50;;
47167;SDS011;32931;47.778;17.806;2023-07-30T06:43:27;7.60;;;3.38;;
47167;SDS011;32931;47.778;17.806;2023-07-30T06:45:53;8.00;;;3.25;;
47167;SDS011;32931;47.778;17.806;2023-07-30T06:48:20;4.57;;;3.28;;
47167;SDS011;32931;47.778;17.806;2023-07-30T06:50:46;9.98;;;3.53;;
47167;SDS011;32931;47.778;17.806;2023-07-30T06:53:12;4.82;;;2.85;;
47167;SDS011;32931;47.778;17.806;2023-07-30T06:55:38;6.15;;;3.00;;
47167;SDS011;32931;47.778;17.806;2023-07-30T06:58:04;6.32;;;3.28;;
47167;SDS011;32931;47.778;17.806;2023-07-30T07:00:31;11.18;;;3.60;;
47167;SDS011;32931;47.778;17.806;2023-07-30T07:02:57;4.57;;;3.38;;
47167;SDS011;32931;47.778;17.806;2023-07-30T07:05:23;8.48;;;3.50;;
47167;SDS011;32931;47.778;17.806;2023-07-30T07:07:49;6.85;;;3.10;;
47167;SDS011;32931;47.778;17.806;2023-07-30T07:10:15;6.53;;;3.40;;
47167;SDS011;32931;47.778;17.806;2023-07-30T07:12:42;6.85;;;3.25;;
47167;SDS011;32931;47.778;17.806;2023-07-30T07:15:08;4.85;;;2.90;;
47167;SDS011;32931;47.778;17.806;2023-07-30T07:17:34;4.70;;;2.88;;
47167;SDS011;32931;47.778;17.806;2023-07-30T07:20:00;7.78;;;3.20;;
47167;SDS011;32931;47.778;17.806;2023-07-30T07:22:29;6.70;;;3.08;;
47167;SDS011;32931;47.778;17.806;2023-07-30T07:24:55;7.50;;;3.20;;
47167;SDS011;32931;47.778;17.806;2023-07-30T07:27:21;5.22;;;2.70;;
47167;SDS011;32931;47.778;17.806;2023-07-30T07:29:50;4.82;;;3.03;;
47167;SDS011;32931;47.778;17.806;2023-07-30T07:32:17;6.32;;;3.60;;
47167;SDS011;32931;47.778;17.806;2023-07-30T07:34:46;10.88;;;3.30;;
47167;SDS011;32931;47.778;17.806;2023-07-30T07:37:14;4.22;;;2.65;;
47167;SDS011;32931;47.778;17.806;2023-07-30T07:39:44;7.97;;;3.00;;
47167;SDS011;32931;47.778;17.806;2023-07-30T07:42:11;5.18;;;3.00;;
47167;SDS011;32931;47.778;17.806;2023-07-30T07:44:37;6.20;;;3.70;;
47167;SDS011;32931;47.778;17.806;2023-07-30T07:47:04;3.40;;;2.65;;
47167;SDS011;32931;47.778;17.806;2023-07-30T07:49:30;7.25;;;3.28;;
47167;SDS011;32931;47.778;17.806;2023-07-30T07:51:56;5.57;;;3.33;;
47167;SDS011;32931;47.778;17.806;2023-07-30T07:54:22;4.47;;;3.13;;
47167;SDS011;32931;47.778;17.806;2023-07-30T07:56:48;7.03;;;3.03;;
47167;SDS011;32931;47.778;17.806;2023-07-30T07:59:14;4.32;;;2.88;;
47167;SDS011;32931;47.778;17.806;2023-07-30T08:01:40;10.13;;;3.40;;
47167;SDS011;32931;47.778;17.806;2023-07-30T08:04:07;3.60;;;2.67;;
47167;SDS011;32931;47.778;17.806;2023-07-30T08:06:33;6.82;;;2.75;;
47167;SDS011;32931;47.778;17.806;2023-07-30T08:08:59;7.90;;;3.10;;
47167;SDS011;32931;47.778;17.806;2023-07-30T08:11:25;4.15;;;2.95;;
47167;SDS011;32931;47.778;17.806;2023-07-30T08:13:51;3.92;;;3.17;;
47167;SDS011;32931;47.778;17.806;2023-07-30T08:16:17;6.80;;;3.13;;
47167;SDS011;32931;47.778;17.806;2023-07-30T08:18:43;6.85;;;3.10;;
47167;SDS011;32931;47.778;17.806;2023-07-30T08:21:09;5.15;;;2.97;;
47167;SDS011;32931;47.778;17.806;2023-07-30T08:23:35;6.22;;;3.10;;
47167;SDS011;32931;47.778;17.806;2023-07-30T08:26:02;4.90;;;3.08;;
47167;SDS011;32931;47.778;17.806;2023-07-30T08:28:28;12.63;;;3.25;;
47167;SDS011;32931;47.778;17.806;2023-07-30T08:30:59;7.95;;;3.05;;
47167;SDS011;32931;47.778;17.806;2023-07-30T08:35:56;6.00;;;2.90;;
47167;SDS011;32931;47.778;17.806;2023-07-30T08:38:23;7.95;;;3.00;;
47167;SDS011;32931;47.778;17.806;2023-07-30T08:40:49;4.05;;;3.05;;
47167;SDS011;32931;47.778;17.806;2023-07-30T08:43:16;8.80;;;2.90;;
47167;SDS011;32931;47.778;17.806;2023-07-30T08:45:43;4.28;;;3.40;;
47167;SDS011;32931;47.778;17.806;2023-07-30T08:48:09;7.78;;;3.20;;
47167;SDS011;32931;47.778;17.806;2023-07-30T08:50:35;5.50;;;3.20;;
47167;SDS011;32931;47.778;17.806;2023-07-30T08:53:02;6.55;;;3.28;;
47167;SDS011;32931;47.778;17.806;2023-07-30T08:55:29;9.15;;;3.30;;
47167;SDS011;32931;47.778;17.806;2023-07-30T08:57:58;6.30;;;2.90;;
47167;SDS011;32931;47.778;17.806;2023-07-30T09:00:30;5.10;;;2.90;;
47167;SDS011;32931;47.778;17.806;2023-07-30T09:02:59;5.85;;;3.20;;
47167;SDS011;32931;47.778;17.806;2023-07-30T09:05:28;8.23;;;3.47;;
47167;SDS011;32931;47.778;17.806;2023-07-30T09:07:55;10.25;;;4.22;;
47167;SDS011;32931;47.778;17.806;2023-07-30T09:10:22;5.45;;;3.70;;
47167;SDS011;32931;47.778;17.806;2023-07-30T09:12:57;4.00;;;2.53;;
47167;SDS011;32931;47.778;17.806;2023-07-30T09:15:42;3.85;;;2.50;;
47167;SDS011;32931;47.778;17.806;2023-07-30T09:18:13;3.10;;;2.55;;
47167;SDS011;32931;47.778;17.806;2023-07-30T09:20:43;7.20;;;2.83;;
47167;SDS011;32931;47.778;17.806;2023-07-30T09:23:10;21.13;;;3.28;;
47167;SDS011;32931;47.778;17.806;2023-07-30T09:25:36;45.00;;;3.72;;
47167;SDS011;32931;47.778;17.806;2023-07-30T09:28:03;112.40;;;6.88;;
47167;SDS011;32931;47.778;17.806;2023-07-30T09:30:30;53.78;;;5.07;;
47167;SDS011;32931;47.778;17.806;2023-07-30T09:32:58;24.42;;;4.65;;
47167;SDS011;32931;47.778;17.806;2023-07-30T09:35:25;18.08;;;4.57;;
47167;SDS011;32931;47.778;17.806;2023-07-30T09:37:59;12.50;;;3.72;;
47167;SDS011;32931;47.778;17.806;2023-07-30T09:40:30;28.67;;;5.15;;
47167;SDS011;32931;47.778;17.806;2023-07-30T09:43:04;8.98;;;3.95;;
47167;SDS011;32931;47.778;17.806;2023-07-30T09:45:34;16.95;;;4.20;;
47167;SDS011;32931;47.778;17.806;2023-07-30T09:48:02;62.95;;;5.78;;
47167;SDS011;32931;47.778;17.806;2023-07-30T09:50:33;9.05;;;3.75;;
47167;SDS011;32931;47.778;17.806;2023-07-30T09:53:03;11.18;;;4.55;;
47167;SDS011;32931;47.778;17.806;2023-07-30T09:55:30;19.77;;;3.72;;
47167;SDS011;32931;47.778;17.806;2023-07-30T09:57:56;11.48;;;3.88;;
47167;SDS011;32931;47.778;17.806;2023-07-30T10:00:23;26.75;;;3.80;;
47167;SDS011;32931;47.778;17.806;2023-07-30T10:02:49;9.68;;;3.92;;
47167;SDS011;32931;47.778;17.806;2023-07-30T10:05:19;13.00;;;4.38;;
47167;SDS011;32931;47.778;17.806;2023-07-30T10:07:56;14.02;;;5.13;;
47167;SDS011;32931;47.778;17.806;2023-07-30T10:12:57;11.13;;;4.57;;
47167;SDS011;32931;47.778;17.806;2023-07-30T10:15:26;18.67;;;5.38;;
47167;SDS011;32931;47.778;17.806;2023-07-30T10:17:52;13.82;;;4.90;;
47167;SDS011;32931;47.778;17.806;2023-07-30T10:20:22;14.20;;;5.57;;
47167;SDS011;32931;47.778;17.806;2023-07-30T10:22:55;9.32;;;4.25;;
47167;SDS011;32931;47.778;17.806;2023-07-30T10:25:28;10.32;;;4.70;;
47167;SDS011;32931;47.778;17.806;2023-07-30T10:27:56;9.07;;;4.32;;
47167;SDS011;32931;47.778;17.806;2023-07-30T10:30:29;10.93;;;5.25;;
47167;SDS011;32931;47.778;17.806;2023-07-30T10:33:09;12.77;;;4.85;;
47167;SDS011;32931;47.778;17.806;2023-07-30T10:35:36;10.38;;;5.55;;
47167;SDS011;32931;47.778;17.806;2023-07-30T10:38:16;11.23;;;5.20;;
47167;SDS011;32931;47.778;17.806;2023-07-30T10:41:08;12.02;;;5.95;;
47167;SDS011;32931;47.778;17.806;2023-07-30T10:43:34;6.25;;;3.22;;
47167;SDS011;32931;47.778;17.806;2023-07-30T10:46:02;8.48;;;4.15;;
47167;SDS011;32931;47.778;17.806;2023-07-30T10:51:01;8.27;;;4.15;;
47167;SDS011;32931;47.778;17.806;2023-07-30T10:53:30;7.93;;;3.72;;
47167;SDS011;32931;47.778;17.806;2023-07-30T10:55:59;7.60;;;4.13;;
47167;SDS011;32931;47.778;17.806;2023-07-30T10:58:32;5.53;;;4.13;;
47167;SDS011;32931;47.778;17.806;2023-07-30T11:01:03;6.55;;;4.15;;
47167;SDS011;32931;47.778;17.806;2023-07-30T11:03:30;4.32;;;2.75;;
47167;SDS011;32931;47.778;17.806;2023-07-30T11:06:02;6.65;;;3.97;;
47167;SDS011;32931;47.778;17.806;2023-07-30T11:08:39;6.68;;;2.55;;
47167;SDS011;32931;47.778;17.806;2023-07-30T11:11:07;3.67;;;2.22;;
47167;SDS011;32931;47.778;17.806;2023-07-30T11:13:40;6.45;;;2.17;;
47167;SDS011;32931;47.778;17.806;2023-07-30T11:16:08;3.13;;;2.15;;
47167;SDS011;32931;47.778;17.806;2023-07-30T11:18:38;4.97;;;2.40;;
47167;SDS011;32931;47.778;17.806;2023-07-30T11:21:12;3.47;;;2.30;;
47167;SDS011;32931;47.778;17.806;2023-07-30T11:23:44;5.30;;;3.00;;
47167;SDS011;32931;47.778;17.806;2023-07-30T11:26:15;5.88;;;3.15;;
47167;SDS011;32931;47.778;17.806;2023-07-30T11:28:43;5.10;;;3.35;;
47167;SDS011;32931;47.778;17.806;2023-07-30T11:31:14;3.28;;;2.42;;
47167;SDS011;32931;47.778;17.806;2023-07-30T11:33:46;3.22;;;2.40;;
47167;SDS011;32931;47.778;17.806;2023-07-30T11:36:14;3.05;;;2.30;;
47167;SDS011;32931;47.778;17.806;2023-07-30T11:38:42;5.05;;;2.20;;
47167;SDS011;32931;47.778;17.806;2023-07-30T11:41:10;2.42;;;1.85;;
47167;SDS011;32931;47.778;17.806;2023-07-30T11:43:38;4.13;;;2.30;;
47167;SDS011;32931;47.778;17.806;2023-07-30T11:46:18;3.20;;;1.80;;
47167;SDS011;32931;47.778;17.806;2023-07-30T11:48:46;2.65;;;2.10;;
47167;SDS011;32931;47.778;17.806;2023-07-30T11:51:26;3.72;;;1.70;;
47167;SDS011;32931;47.778;17.806;2023-07-30T11:53:57;3.55;;;1.77;;
47167;SDS011;32931;47.778;17.806;2023-07-30T11:56:27;3.85;;;1.90;;
47167;SDS011;32931;47.778;17.806;2023-07-30T11:58:56;3.00;;;1.92;;
47167;SDS011;32931;47.778;17.806;2023-07-30T12:01:27;2.20;;;1.80;;
47167;SDS011;32931;47.778;17.806;2023-07-30T12:03:58;2.65;;;2.00;;
47167;SDS011;32931;47.778;17.806;2023-07-30T12:06:38;2.45;;;2.00;;
47167;SDS011;32931;47.778;17.806;2023-07-30T12:11:51;3.28;;;1.80;;
47167;SDS011;32931;47.778;17.806;2023-07-30T12:14:22;2.85;;;1.90;;
47167;SDS011;32931;47.778;17.806;2023-07-30T12:17:01;3.65;;;1.60;;
47167;SDS011;32931;47.778;17.806;2023-07-30T12:19:28;2.05;;;1.75;;
47167;SDS011;32931;47.778;17.806;2023-07-30T12:21:55;3.15;;;1.50;;
47167;SDS011;32931;47.778;17.806;2023-07-30T12:24:21;4.28;;;1.55;;
47167;SDS011;32931;47.778;17.806;2023-07-30T12:26:47;2.78;;;1.80;;
47167;SDS011;32931;47.778;17.806;2023-07-30T12:29:14;2.45;;;1.60;;
47167;SDS011;32931;47.778;17.806;2023-07-30T12:31:40;1.77;;;1.50;;
47167;SDS011;32931;47.778;17.806;2023-07-30T12:34:06;2.65;;;1.60;;
47167;SDS011;32931;47.778;17.806;2023-07-30T12:36:32;2.53;;;1.40;;
47167;SDS011;32931;47.778;17.806;2023-07-30T12:38:58;4.18;;;1.50;;
47167;SDS011;32931;47.778;17.806;2023-07-30T12:41:24;2.22;;;1.52;;
47167;SDS011;32931;47.778;17.806;2023-07-30T12:43:54;1.75;;;1.45;;
47167;SDS011;32931;47.778;17.806;2023-07-30T12:46:22;2.00;;;1.55;;
47167;SDS011;32931;47.778;17.806;2023-07-30T12:48:50;2.35;;;1.65;;
47167;SDS011;32931;47.778;17.806;2023-07-30T12:51:17;5.03;;;1.45;;
47167;SDS011;32931;47.778;17.806;2023-07-30T12:53:43;2.22;;;1.25;;
47167;SDS011;32931;47.778;17.806;2023-07-30T12:56:09;4.10;;;1.27;;
47167;SDS011;32931;47.778;17.806;2023-07-30T12:58:35;4.60;;;1.60;;
47167;SDS011;32931;47.778;17.806;2023-07-30T13:01:02;2.08;;;1.63;;
47167;SDS011;32931;47.778;17.806;2023-07-30T13:03:29;2.20;;;1.33;;
47167;SDS011;32931;47.778;17.806;2023-07-30T13:05:56;1.33;;;1.20;;
47167;SDS011;32931;47.778;17.806;2023-07-30T13:08:22;1.63;;;1.20;;
47167;SDS011;32931;47.778;17.806;2023-07-30T13:10:48;2.17;;;1.23;;
47167;SDS011;32931;47.778;17.806;2023-07-30T13:13:14;1.77;;;1.20;;
47167;SDS011;32931;47.778;17.806;2023-07-30T13:15:40;1.63;;;1.15;;
47167;SDS011;32931;47.778;17.806;2023-07-30T13:18:06;2.58;;;1.50;;
47167;SDS011;32931;47.778;17.806;2023-07-30T13:20:32;2.40;;;1.33;;
47167;SDS011;32931;47.778;17.806;2023-07-30T13:22:58;6.53;;;1.50;;
47167;SDS011;32931;47.778;17.806;2023-07-30T13:25:24;1.58;;;1.40;;
47167;SDS011;32931;47.778;17.806;2023-07-30T13:27:51;2.08;;;1.30;;
47167;SDS011;32931;47.778;17.806;2023-07-30T13:30:17;1.85;;;1.20;;
47167;SDS011;32931;47.778;17.806;2023-07-30T13:32:43;2.22;;;1.35;;
47167;SDS011;32931;47.778;17.806;2023-07-30T13:35:09;1.63;;;1.42;;
47167;SDS011;32931;47.778;17.806;2023-07-30T13:37:35;1.67;;;1.30;;
47167;SDS011;32931;47.778;17.806;2023-07-30T13:40:01;2.28;;;1.63;;
47167;SDS011;32931;47.778;17.806;2023-07-30T13:42:27;5.97;;;1.77;;
47167;SDS011;32931;47.778;17.806;2023-07-30T13:44:53;3.00;;;1.75;;
47167;SDS011;32931;47.778;17.806;2023-07-30T13:47:20;6.50;;;2.00;;
47167;SDS011;32931;47.778;17.806;2023-07-30T13:49:46;5.00;;;2.00;;
47167;SDS011;32931;47.778;17.806;2023-07-30T13:52:13;4.90;;;2.38;;
47167;SDS011;32931;47.778;17.806;2023-07-30T13:54:39;5.63;;;2.38;;
47167;SDS011;32931;47.778;17.806;2023-07-30T13:57:07;4.75;;;2.40;;
47167;SDS011;32931;47.778;17.806;2023-07-30T13:59:33;4.10;;;1.98;;
47167;SDS011;32931;47.778;17.806;2023-07-30T14:01:59;3.53;;;2.08;;
47167;SDS011;32931;47.778;17.806;2023-07-30T14:04:25;3.95;;;2.33;;
47167;SDS011;32931;47.778;17.806;2023-07-30T14:06:51;4.53;;;2.10;;
47167;SDS011;32931;47.778;17.806;2023-07-30T14:09:17;6.20;;;2.28;;
47167;SDS011;32931;47.778;17.806;2023-07-30T14:11:44;5.72;;;2.20;;
47167;SDS011;32931;47.778;17.806;2023-07-30T14:14:12;4.35;;;2.50;;
47167;SDS011;32931;47.778;17.806;2023-07-30T14:16:38;5.93;;;2.10;;
47167;SDS011;32931;47.778;17.806;2023-07-30T14:19:04;4.43;;;2.30;;
47167;SDS011;32931;47.778;17.806;2023-07-30T14:21:30;4.47;;;2.10;;
47167;SDS011;32931;47.778;17.806;2023-07-30T14:23:56;4.60;;;2.30;;
47167;SDS011;32931;47.778;17.806;2023-07-30T14:26:22;5.10;;;2.25;;
47167;SDS011;32931;47.778;17.806;2023-07-30T14:28:49;4.57;;;2.38;;
47167;SDS011;32931;47.778;17.806;2023-07-30T14:31:15;5.85;;;2.33;;
47167;SDS011;32931;47.778;17.806;2023-07-30T14:33:41;4.03;;;2.17;;
47167;SDS011;32931;47.778;17.806;2023-07-30T14:36:07;4.18;;;2.28;;
47167;SDS011;32931;47.778;17.806;2023-07-30T14:38:36;4.13;;;2.17;;
47167;SDS011;32931;47.778;17.806;2023-07-30T14:41:03;3.00;;;2.00;;
47167;SDS011;32931;47.778;17.806;2023-07-30T14:43:31;3.90;;;2.22;;